Time;durP1;ratioP1;P1;durP2;ratioP2;P2;SDS_P1;SDS_P2;PMS_P1;PMS_P2;Temp;Humidity;BMP_temperature;BMP_pressure;BME280_temperature;BME280_humidity;BME280_pressure;Samples;Min_cycle;Max_cycle;Signal;HPM_P1;HPM_P2
2023/09/28 00:00:37;;;;;;;3.83;2.60;;;;;;;23.43;52.99;101341.97;4973664;28;20370;-41
2023/09/28 00:03:09;;;;;;;4.60;2.75;;;;;;;23.43;52.88;101335.72;4969670;28;20157;-40
2023/09/28 00:05:36;;;;;;;4.55;2.72;;;;;;;23.42;52.61;101345.72;4967236;28;20050;-40
2023/09/28 00:08:03;;;;;;;5.80;2.50;;;;;;;23.41;53.10;101360.25;4967809;28;20039;-40
2023/09/28 00:10:31;;;;;;;4.45;2.72;;;;;;;23.40;52.99;101358.59;4967134;28;20061;-41
2023/09/28 00:12:57;;;;;;;4.00;2.72;;;;;;;23.40;52.91;101364.00;4970581;28;20058;-40
2023/09/28 00:15:24;;;;;;;3.33;2.78;;;;;;;23.39;52.79;101365.84;4962607;28;20659;-40
2023/09/28 00:17:51;;;;;;;3.88;2.60;;;;;;;23.38;52.97;101358.75;4968350;28;20047;-40
2023/09/28 00:20:20;;;;;;;3.53;2.70;;;;;;;23.37;52.80;101361.63;4963161;28;20112;-41
2023/09/28 00:22:47;;;;;;;4.65;2.63;;;;;;;23.37;52.76;101364.34;4966026;28;20051;-40
2023/09/28 00:25:16;;;;;;;3.17;2.28;;;;;;;23.35;53.30;101367.19;4964917;28;20055;-41
2023/09/28 00:27:44;;;;;;;4.93;2.90;;;;;;;23.34;53.29;101367.41;4967813;28;20139;-39
2023/09/28 00:30:18;;;;;;;2.90;2.22;;;;;;;23.34;52.91;101370.09;4966892;28;20051;-40
2023/09/28 00:32:54;;;;;;;;;;;;;;;23.31;53.44;101365.88;4968736;28;20146;-41
2023/09/28 00:35:22;;;;;;;3.72;2.78;;;;;;;23.35;53.22;101366.38;4970005;28;20027;-41
2023/09/28 00:37:50;;;;;;;4.47;2.78;;;;;;;23.32;52.86;101364.03;4965757;28;20058;-40
2023/09/28 00:40:19;;;;;;;5.03;2.88;;;;;;;23.30;53.31;101368.75;4961904;28;20073;-41
2023/09/28 00:42:47;;;;;;;3.50;2.60;;;;;;;23.29;53.09;101376.03;4965908;28;20054;-39
2023/09/28 00:45:14;;;;;;;5.25;3.10;;;;;;;23.27;52.70;101375.34;4967909;28;20113;-40
2023/09/28 00:47:40;;;;;;;3.30;2.45;;;;;;;23.27;52.97;101380.75;4966381;28;20403;-41
2023/09/28 00:50:10;;;;;;;3.95;2.88;;;;;;;23.28;52.88;101387.03;4964946;28;20868;-42
2023/09/28 00:52:38;;;;;;;4.20;2.67;;;;;;;23.26;53.28;101383.66;4971080;28;20050;-40
2023/09/28 00:55:06;;;;;;;3.55;2.85;;;;;;;23.26;53.39;101378.25;4971909;28;20050;-40
2023/09/28 00:57:34;;;;;;;4.13;2.50;;;;;;;23.25;52.79;101395.50;4973321;28;20050;-41
2023/09/28 01:00:18;;;;;;;3.78;2.80;;;;;;;23.24;53.04;101391.97;4973302;28;20078;-41
2023/09/28 01:02:50;;;;;;;3.55;2.58;;;;;;;23.24;53.00;101391.13;4964752;28;20065;-41
2023/09/28 01:05:19;;;;;;;4.30;2.72;;;;;;;23.23;52.86;101389.41;4966122;28;20086;-42
2023/09/28 01:07:45;;;;;;;3.65;2.75;;;;;;;23.22;53.07;101380.47;4963937;28;20043;-42
2023/09/28 01:10:14;;;;;;;3.63;2.80;;;;;;;23.21;53.40;101389.59;4970312;28;20427;-41
2023/09/28 01:12:41;;;;;;;3.70;2.63;;;;;;;23.21;53.06;101396.88;4965466;28;20427;-40
2023/09/28 01:15:10;;;;;;;3.92;2.40;;;;;;;23.20;53.56;101395.19;4970004;28;20057;-41
2023/09/28 01:17:39;;;;;;;3.90;2.88;;;;;;;23.20;53.01;101397.91;4965118;28;20047;-41
2023/09/28 01:20:18;;;;;;;3.78;2.78;;;;;;;23.19;53.04;101390.78;4962757;28;20155;-42
2023/09/28 01:22:45;;;;;;;4.20;2.80;;;;;;;23.18;53.44;101398.06;4963613;28;20059;-41
2023/09/28 01:25:12;;;;;;;4.55;3.10;;;;;;;23.16;53.13;101402.81;4962245;28;20102;-42
2023/09/28 01:27:43;;;;;;;4.93;2.78;;;;;;;23.15;53.50;101403.78;4961067;28;20243;-42
2023/09/28 01:30:11;;;;;;;5.22;2.70;;;;;;;23.14;53.68;101396.72;4970421;28;20113;-42
2023/09/28 01:32:38;;;;;;;4.97;3.30;;;;;;;23.12;53.25;101399.59;4967724;28;20149;-42
2023/09/28 01:35:06;;;;;;;4.03;2.70;;;;;;;23.12;53.33;101410.41;4962866;28;20160;-42
2023/09/28 01:37:49;;;;;;;3.67;2.90;;;;;;;23.11;53.37;101416.81;4965519;28;20332;-42
2023/09/28 01:40:16;;;;;;;3.47;2.60;;;;;;;23.10;53.26;101417.84;4967349;28;20050;-41
2023/09/28 01:42:43;;;;;;;4.40;2.78;;;;;;;23.10;53.16;101411.59;4966535;28;20137;-41
2023/09/28 01:45:11;;;;;;;4.47;2.88;;;;;;;23.08;53.23;101422.59;4966320;28;20588;-41
2023/09/28 01:47:39;;;;;;;3.60;2.80;;;;;;;23.08;53.56;101416.34;4967623;28;20371;-41
2023/09/28 01:50:06;;;;;;;3.53;2.78;;;;;;;23.08;53.28;101419.06;4970902;28;20068;-42
2023/09/28 01:52:33;;;;;;;3.72;2.90;;;;;;;23.06;53.43;101416.50;4966129;28;20050;-42
2023/09/28 01:55:00;;;;;;;5.40;3.28;;;;;;;23.05;53.64;101417.53;4964232;28;20106;-42
2023/09/28 01:57:26;;;;;;;3.60;2.70;;;;;;;23.05;53.39;101411.28;4967609;28;20387;-43
2023/09/28 01:59:53;;;;;;;4.68;2.67;;;;;;;23.03;53.70;101413.31;4964557;28;20051;-40
2023/09/28 02:02:21;;;;;;;4.40;3.03;;;;;;;23.03;53.29;101406.03;4970272;28;20478;-41
2023/09/28 02:04:48;;;;;;;4.20;3.25;;;;;;;23.02;53.80;101407.06;4969924;28;20050;-42
2023/09/28 02:07:14;;;;;;;3.75;2.72;;;;;;;23.02;53.66;101412.47;4961877;28;20057;-42
2023/09/28 02:09:41;;;;;;;3.95;2.70;;;;;;;23.01;53.25;101418.91;4970177;28;20069;-41
2023/09/28 02:12:07;;;;;;;4.63;3.20;;;;;;;23.01;53.32;101420.75;4966506;28;20085;-41
2023/09/28 02:14:34;;;;;;;5.13;2.65;;;;;;;23.01;53.35;101423.47;4962189;28;20063;-40
2023/09/28 02:17:01;;;;;;;5.10;3.00;;;;;;;23.00;53.75;101424.47;4964830;28;20125;-40
2023/09/28 02:19:27;;;;;;;4.18;2.72;;;;;;;22.99;53.44;101415.50;4968914;28;20047;-40
2023/09/28 02:21:54;;;;;;;3.90;2.70;;;;;;;22.99;53.44;101426.31;4965754;28;20100;-40
2023/09/28 02:24:20;;;;;;;3.13;2.53;;;;;;;22.98;53.77;101413.81;4965905;28;21278;-40
2023/09/28 02:26:47;;;;;;;4.80;2.92;;;;;;;22.98;53.38;101429.22;4967651;28;20543;-41
2023/09/28 02:29:14;;;;;;;5.30;2.72;;;;;;;22.98;54.06;101423.81;4967683;28;20148;-40
2023/09/28 02:31:44;;;;;;;4.38;2.80;;;;;;;22.95;53.53;101424.97;4966305;28;20042;-40
2023/09/28 02:34:10;;;;;;;3.30;2.80;;;;;;;22.96;53.83;101420.44;4973994;28;20717;-41
2023/09/28 02:36:37;;;;;;;5.25;3.17;;;;;;;22.96;53.66;101425.84;4971298;28;20054;-41
2023/09/28 02:39:07;;;;;;;4.65;2.85;;;;;;;22.95;53.68;101424.13;4970986;28;20153;-40
2023/09/28 02:41:35;;;;;;;4.70;3.22;;;;;;;22.93;53.56;101418.91;4972106;28;20070;-41
2023/09/28 02:44:02;;;;;;;3.92;2.92;;;;;;;22.92;53.83;101422.63;4972587;28;20121;-41
2023/09/28 02:46:28;;;;;;;4.45;2.60;;;;;;;22.92;53.88;101428.03;4973622;28;20448;-41
2023/09/28 02:48:55;;;;;;;3.97;2.80;;;;;;;22.91;53.88;101429.03;4969272;28;20149;-41
2023/09/28 02:51:22;;;;;;;4.30;2.60;;;;;;;22.90;53.99;101424.63;4971251;28;20580;-40
2023/09/28 02:53:49;;;;;;;3.85;2.67;;;;;;;22.90;53.70;101430.91;4974716;28;20398;-41
2023/09/28 02:56:16;;;;;;;3.33;2.80;;;;;;;22.89;53.61;101420.25;4968504;28;20051;-40
2023/09/28 02:58:46;;;;;;;4.05;3.00;;;;;;;22.88;53.55;101424.81;4966967;28;20445;-41
2023/09/28 03:01:12;;;;;;;3.20;2.53;;;;;;;22.87;53.95;101423.13;4972289;28;20350;-41
2023/09/28 03:03:39;;;;;;;3.88;2.85;;;;;;;22.86;53.35;101432.22;4968574;28;20050;-41
2023/09/28 03:06:06;;;;;;;5.10;2.80;;;;;;;22.86;53.88;101431.38;4969740;28;20053;-42
2023/09/28 03:08:32;;;;;;;3.60;2.65;;;;;;;22.85;53.60;101433.25;4969403;28;20089;-40
2023/09/28 03:10:59;;;;;;;3.85;2.55;;;;;;;22.83;53.52;101437.97;4972392;28;20051;-41
2023/09/28 03:13:26;;;;;;;3.97;2.85;;;;;;;22.83;53.60;101442.53;4972244;28;20062;-41
2023/09/28 03:15:53;;;;;;;6.03;2.70;;;;;;;22.83;53.54;101447.94;4969746;28;20485;-41
2023/09/28 03:18:20;;;;;;;3.60;2.33;;;;;;;22.83;54.00;101450.63;4975311;28;20117;-42
2023/09/28 03:20:48;;;;;;;5.22;2.58;;;;;;;22.81;54.15;101452.69;4965707;28;20668;-41
2023/09/28 03:23:15;;;;;;;3.47;2.58;;;;;;;22.81;53.61;101453.53;4971282;28;20109;-40
2023/09/28 03:25:42;;;;;;;3.83;2.60;;;;;;;22.80;53.59;101454.56;4975652;28;20402;-41
2023/09/28 03:28:09;;;;;;;4.65;2.38;;;;;;;22.80;54.09;101464.53;4969954;28;20435;-41
2023/09/28 03:30:36;;;;;;;3.53;2.53;;;;;;;22.80;53.64;101484.28;4963867;28;20055;-41
2023/09/28 03:33:03;;;;;;;3.30;2.22;;;;;;;22.80;54.06;101488.84;4967234;28;20139;-41
2023/09/28 03:35:30;;;;;;;2.53;2.15;;;;;;;22.79;53.72;101493.38;4972205;28;20059;-40
2023/09/28 03:37:58;;;;;;;5.07;2.60;;;;;;;22.78;53.75;101497.09;4969514;28;20423;-41
2023/09/28 03:40:33;;;;;;;3.97;2.60;;;;;;;22.77;53.89;101503.53;4973183;28;20042;-41
2023/09/28 03:43:01;;;;;;;4.13;2.40;;;;;;;22.77;53.83;101511.63;4969685;28;20129;-41
2023/09/28 03:45:27;;;;;;;4.35;2.70;;;;;;;22.77;53.76;101522.44;4963924;28;20047;-41
2023/09/28 03:47:54;;;;;;;3.58;2.50;;;;;;;22.77;53.95;101532.41;4969690;28;20387;-41
2023/09/28 03:50:22;;;;;;;5.47;2.33;;;;;;;22.77;54.17;101529.72;4974911;28;20074;-40
2023/09/28 03:52:50;;;;;;;3.67;2.65;;;;;;;22.76;53.74;101534.28;4966671;28;20065;-42
2023/09/28 03:55:19;;;;;;;2.90;2.40;;;;;;;22.75;54.09;101535.28;4969368;28;20435;-41
2023/09/28 03:57:46;;;;;;;3.47;2.55;;;;;;;22.75;54.30;101518.22;4968002;28;20051;-41
2023/09/28 04:00:15;;;;;;;3.70;2.35;;;;;;;22.74;54.17;101530.03;4968808;28;20117;-41
2023/09/28 04:02:49;;;;;;;2.67;1.90;;;;;;;22.74;54.15;101536.28;4968032;28;20109;-41
2023/09/28 04:05:21;;;;;;;3.78;2.20;;;;;;;22.74;54.28;101533.59;4967683;28;20061;-41
2023/09/28 04:07:48;;;;;;;3.47;2.00;;;;;;;22.73;54.30;101534.63;4969586;28;20727;-41
2023/09/28 04:10:15;;;;;;;3.10;2.13;;;;;;;22.73;54.21;101531.91;4969461;28;20062;-40
2023/09/28 04:12:42;;;;;;;4.13;2.28;;;;;;;22.72;54.39;101538.34;4969957;28;20074;-40
2023/09/28 04:15:09;;;;;;;3.63;2.72;;;;;;;22.73;54.23;101541.88;4970624;28;20110;-40
2023/09/28 04:17:37;;;;;;;4.07;2.50;;;;;;;22.72;54.32;101543.75;4971321;28;20129;-41
2023/09/28 04:20:09;;;;;;;4.20;2.38;;;;;;;22.72;54.46;101540.19;4968971;28;20043;-42
2023/09/28 04:22:36;;;;;;;3.83;2.50;;;;;;;22.70;54.22;101528.69;4968102;28;20120;-42
2023/09/28 04:25:03;;;;;;;3.38;2.35;;;;;;;22.70;54.21;101534.94;4968474;28;20424;-40
2023/09/28 04:27:30;;;;;;;5.43;2.40;;;;;;;22.70;53.97;101534.09;4966199;28;20294;-39
2023/09/28 04:29:57;;;;;;;3.30;2.30;;;;;;;22.69;54.32;101538.66;4967299;28;20055;-39
2023/09/28 04:32:23;;;;;;;4.45;2.45;;;;;;;22.67;53.89;101552.34;4968403;28;20043;-39
2023/09/28 04:34:51;;;;;;;4.20;2.33;;;;;;;22.67;53.82;101559.59;4967799;28;20063;-39
2023/09/28 04:37:18;;;;;;;4.22;2.40;;;;;;;22.66;53.95;101556.03;4966021;28;20050;-40
2023/09/28 04:39:45;;;;;;;3.70;2.10;;;;;;;22.66;53.96;101552.50;4970578;28;20101;-40
2023/09/28 04:42:12;;;;;;;6.22;2.17;;;;;;;22.66;54.20;101552.50;4963948;28;20050;-42
2023/09/28 04:44:43;;;;;;;5.85;2.72;;;;;;;22.65;53.94;101564.31;4970912;28;20050;-42
2023/09/28 04:47:11;;;;;;;6.60;2.72;;;;;;;22.65;54.15;101569.72;4967257;28;20058;-41
2023/09/28 04:49:40;;;;;;;7.28;3.42;;;;;;;22.65;54.00;101573.28;4969510;28;20138;-40
2023/09/28 04:52:07;;;;;;;9.27;3.47;;;;;;;22.66;54.17;101568.72;4968418;28;20054;-41
2023/09/28 04:54:34;;;;;;;8.85;3.22;;;;;;;22.66;53.95;101556.03;4960039;28;20117;-41
2023/09/28 04:57:01;;;;;;;7.53;3.42;;;;;;;22.64;54.35;101549.97;4963134;28;20095;-41
2023/09/28 04:59:27;;;;;;;11.15;3.40;;;;;;;22.65;54.25;101557.06;4962992;28;20503;-41
2023/09/28 05:01:55;;;;;;;7.68;3.40;;;;;;;22.64;54.06;101554.53;4968449;28;20098;-41
2023/09/28 05:04:21;;;;;;;9.88;3.13;;;;;;;22.64;54.17;101565.34;4958741;28;20053;-40
2023/09/28 05:06:48;;;;;;;9.10;3.47;;;;;;;22.62;53.72;101568.19;4964211;28;20132;-40
2023/09/28 05:09:15;;;;;;;5.47;3.10;;;;;;;22.62;54.17;101570.91;4962648;28;20054;-40
2023/09/28 05:11:42;;;;;;;8.02;3.35;;;;;;;22.61;53.90;101577.31;4965813;28;20141;-40
2023/09/28 05:14:08;;;;;;;13.55;4.30;;;;;;;22.61;54.17;101573.78;4965027;28;20075;-40
2023/09/28 05:16:35;;;;;;;12.35;4.03;;;;;;;22.61;54.09;101576.47;4965265;28;20058;-41
2023/09/28 05:19:02;;;;;;;10.65;3.90;;;;;;;22.59;53.93;101589.31;4960747;28;20065;-42
2023/09/28 05:21:29;;;;;;;9.80;3.78;;;;;;;22.59;53.78;101592.00;4963290;28;20133;-41
2023/09/28 05:23:55;;;;;;;8.07;3.58;;;;;;;22.59;54.17;101608.22;4962139;28;20057;-42
2023/09/28 05:26:22;;;;;;;9.88;4.00;;;;;;;22.57;54.01;101608.38;4960994;28;20105;-42
2023/09/28 05:28:49;;;;;;;10.80;3.50;;;;;;;22.56;54.49;101614.81;4962793;28;20121;-39
2023/09/28 05:31:16;;;;;;;10.63;3.88;;;;;;;22.56;54.54;101614.81;4961588;28;20105;-40
2023/09/28 05:33:43;;;;;;;7.22;3.55;;;;;;;22.55;54.21;101598.75;4959658;28;20047;-41
2023/09/28 05:36:09;;;;;;;11.52;3.35;;;;;;;22.55;54.47;101601.44;4963469;28;20059;-41
2023/09/28 05:38:36;;;;;;;8.63;3.28;;;;;;;22.54;53.94;101599.75;4966946;28;20082;-41
2023/09/28 05:41:03;;;;;;;11.45;3.70;;;;;;;22.52;54.36;101601.81;4959544;28;20079;-41
2023/09/28 05:43:30;;;;;;;9.60;3.50;;;;;;;22.53;54.33;101612.44;4961165;28;20051;-40
2023/09/28 05:45:56;;;;;;;12.48;3.70;;;;;;;22.51;54.29;101609.03;4959762;28;20079;-40
2023/09/28 05:48:24;;;;;;;9.40;3.58;;;;;;;22.50;54.07;101610.06;4965737;28;20521;-40
2023/09/28 05:50:53;;;;;;;10.35;3.60;;;;;;;22.50;54.21;101611.91;4963066;28;20474;-40
2023/09/28 05:53:19;;;;;;;9.65;3.45;;;;;;;22.48;54.08;101625.59;4959476;28;20482;-40
2023/09/28 05:55:47;;;;;;;9.52;3.78;;;;;;;22.48;54.16;101624.75;4963139;28;20109;-41
2023/09/28 05:58:14;;;;;;;11.38;4.22;;;;;;;22.48;53.74;101630.16;4957359;28;20332;-40
2023/09/28 06:00:40;;;;;;;11.73;3.80;;;;;;;22.47;54.01;101621.19;4957068;28;20047;-41
2023/09/28 06:03:07;;;;;;;7.57;3.38;;;;;;;22.47;54.31;101613.06;4960962;28;20138;-40
2023/09/28 06:05:33;;;;;;;15.57;3.90;;;;;;;22.47;54.12;101614.94;4961571;28;20411;-40
2023/09/28 06:08:01;;;;;;;11.70;3.08;;;;;;;22.46;54.01;101619.50;4958982;28;20043;-40
2023/09/28 06:10:27;;;;;;;12.60;3.78;;;;;;;22.46;54.03;101619.50;4959198;28;20043;-39
2023/09/28 06:12:54;;;;;;;11.35;3.38;;;;;;;22.45;53.90;101625.91;4962071;28;20051;-41
2023/09/28 06:15:20;;;;;;;13.52;3.70;;;;;;;22.44;54.11;101635.03;4962832;28;20082;-41
2023/09/28 06:17:47;;;;;;;12.30;3.60;;;;;;;22.44;53.69;101626.94;4963146;28;20062;-41
2023/09/28 06:20:14;;;;;;;10.70;3.90;;;;;;;22.44;54.00;101632.34;4958152;28;20043;-40
2023/09/28 06:22:40;;;;;;;10.13;3.40;;;;;;;22.44;54.00;101643.16;4964409;28;20158;-40
2023/09/28 06:25:08;;;;;;;9.48;3.30;;;;;;;22.44;54.00;101647.69;4960922;28;20424;-41
2023/09/28 06:27:35;;;;;;;15.68;3.95;;;;;;;22.43;54.15;101644.13;4964665;28;20623;-40
2023/09/28 06:30:02;;;;;;;11.63;4.13;;;;;;;22.44;54.19;101650.41;4965640;28;20051;-40
2023/09/28 06:32:29;;;;;;;14.25;3.55;;;;;;;22.44;54.28;101659.34;4960065;28;20137;-42
2023/09/28 06:34:56;;;;;;;12.10;2.97;;;;;;;22.45;53.97;101646.69;4964597;28;20456;-41
2023/09/28 06:37:23;;;;;;;15.57;3.80;;;;;;;22.43;54.21;101644.13;4961036;28;20046;-41
2023/09/28 06:39:49;;;;;;;8.10;2.80;;;;;;;22.43;54.20;101641.44;4992347;28;20047;-40
2023/09/28 06:42:16;;;;;;;10.30;3.15;;;;;;;22.44;53.95;101663.91;4965048;28;20046;-41
2023/09/28 06:45:02;;;;;;;12.13;3.88;;;;;;;22.44;54.37;101662.06;4969220;28;20121;-42
2023/09/28 06:47:28;;;;;;;8.77;2.67;;;;;;;22.45;54.02;101676.41;4956887;28;20530;-41
2023/09/28 06:50:15;;;;;;;12.20;4.00;;;;;;;22.46;54.10;101678.09;4964693;28;20057;-41
2023/09/28 06:52:42;;;;;;;11.75;3.20;;;;;;;22.46;54.07;101676.22;4959776;28;20062;-41
2023/09/28 06:55:09;;;;;;;15.05;3.72;;;;;;;22.45;54.00;101671.84;4961212;28;20367;-42
2023/09/28 06:57:35;;;;;;;9.50;3.55;;;;;;;22.46;53.72;101675.38;4962167;28;20042;-41
2023/09/28 07:00:06;;;;;;;12.43;3.47;;;;;;;22.46;54.01;101684.34;4961427;28;20043;-41
2023/09/28 07:02:34;;;;;;;12.85;3.30;;;;;;;22.46;54.20;101680.78;4959126;28;20043;-39
2023/09/28 07:05:04;;;;;;;9.48;3.22;;;;;;;22.45;54.00;101674.53;4960319;28;20047;-42
2023/09/28 07:07:31;;;;;;;11.55;3.45;;;;;;;22.47;53.97;101679.78;4958929;28;20047;-41
2023/09/28 07:09:57;;;;;;;13.40;3.35;;;;;;;22.47;53.72;101675.22;4960598;28;20043;-41
2023/09/28 07:12:24;;;;;;;12.00;3.70;;;;;;;22.47;53.98;101677.91;4961668;28;20062;-42
2023/09/28 07:14:51;;;;;;;11.52;3.75;;;;;;;22.48;53.83;101678.78;4965592;28;20043;-42
2023/09/28 07:17:18;;;;;;;15.05;3.97;;;;;;;22.48;54.02;101678.78;4969753;28;20473;-41
2023/09/28 07:19:44;;;;;;;13.32;3.55;;;;;;;22.48;53.56;101681.50;4970632;28;20062;-41
2023/09/28 07:22:12;;;;;;;10.45;3.20;;;;;;;22.49;53.67;101694.81;4965635;28;20082;-41
2023/09/28 07:24:39;;;;;;;11.20;3.28;;;;;;;22.49;53.92;101692.13;4962744;28;20043;-41
2023/09/28 07:27:06;;;;;;;14.68;3.83;;;;;;;22.49;53.49;101699.38;4963810;28;20429;-39
2023/09/28 07:29:32;;;;;;;13.75;3.67;;;;;;;22.49;53.87;101702.09;4961729;28;20046;-41
2023/09/28 07:31:59;;;;;;;13.65;3.22;;;;;;;22.50;53.66;101709.16;4967261;28;20403;-42
2023/09/28 07:34:26;;;;;;;13.60;3.22;;;;;;;22.50;53.47;101710.00;4959802;28;20058;-42
2023/09/28 07:36:53;;;;;;;16.20;4.03;;;;;;;22.52;53.92;101720.69;4965729;28;20047;-41
2023/09/28 07:39:20;;;;;;;12.23;3.67;;;;;;;22.50;53.79;101712.72;4961114;28;20051;-41
2023/09/28 07:41:47;;;;;;;12.38;3.33;;;;;;;22.51;53.59;101727.91;4964842;28;20144;-41
2023/09/28 07:44:14;;;;;;;11.40;3.22;;;;;;;22.51;53.43;101740.56;4962598;28;20078;-41
2023/09/28 07:46:41;;;;;;;11.10;3.72;;;;;;;22.51;53.30;101740.56;4963205;28;20467;-41
2023/09/28 07:49:08;;;;;;;11.68;3.00;;;;;;;22.50;53.90;101737.03;4964162;28;20154;-42
2023/09/28 07:51:34;;;;;;;9.20;3.10;;;;;;;22.51;53.41;101738.72;4966378;28;20241;-41
2023/09/28 07:54:01;;;;;;;14.25;4.05;;;;;;;22.51;53.45;101738.72;4964554;28;20049;-42
2023/09/28 07:56:28;;;;;;;10.95;3.03;;;;;;;22.53;53.78;101738.56;4966354;28;20054;-41
2023/09/28 07:58:56;;;;;;;12.27;3.13;;;;;;;22.51;53.31;101741.41;4965935;28;20054;-41
2023/09/28 08:01:23;;;;;;;13.40;3.08;;;;;;;22.52;53.73;101743.13;4961292;28;20055;-40
2023/09/28 08:03:50;;;;;;;13.85;3.50;;;;;;;22.53;53.35;101750.22;4963496;28;20046;-41
2023/09/28 08:06:17;;;;;;;13.60;3.67;;;;;;;22.54;53.62;101757.31;4965589;28;20348;-41
2023/09/28 08:08:56;;;;;;;13.32;3.58;;;;;;;22.55;53.42;101758.16;4965731;28;20117;-41
2023/09/28 08:11:24;;;;;;;13.90;3.35;;;;;;;22.56;53.34;101768.81;4964498;28;20043;-40
2023/09/28 08:13:50;;;;;;;9.50;2.80;;;;;;;22.55;53.43;101759.03;4995625;28;20059;-41
2023/09/28 08:16:17;;;;;;;14.07;3.30;;;;;;;22.57;53.40;101735.38;4967476;28;20074;-41
2023/09/28 08:18:46;;;;;;;11.30;2.95;;;;;;;22.59;53.42;101741.50;4962669;28;20494;-41
2023/09/28 08:21:13;;;;;;;12.00;3.22;;;;;;;22.60;53.84;101748.56;4963715;28;20051;-40
2023/09/28 08:23:40;;;;;;;10.00;3.08;;;;;;;22.61;53.60;101765.63;4969125;28;20058;-41
2023/09/28 08:26:18;;;;;;;12.00;2.90;;;;;;;22.63;53.44;101767.19;4968808;28;20098;-40
2023/09/28 08:28:45;;;;;;;16.17;4.32;;;;;;;22.65;53.70;101769.72;4967742;28;20113;-39
2023/09/28 08:31:12;;;;;;;18.63;4.55;;;;;;;22.65;53.63;101757.03;4965020;28;20482;-40
2023/09/28 08:33:39;;;;;;;11.73;3.90;;;;;;;22.66;53.25;101766.84;4961537;28;20215;-40
2023/09/28 08:36:08;;;;;;;20.52;3.53;;;;;;;22.69;53.17;101764.81;4964465;28;20066;-41
2023/09/28 08:38:37;;;;;;;15.07;4.05;;;;;;;22.71;53.53;101773.59;4966269;28;20134;-41
2023/09/28 08:41:06;;;;;;;18.08;3.53;;;;;;;22.73;53.62;101777.00;4963126;28;20611;-41
2023/09/28 08:43:41;;;;;;;10.40;2.72;;;;;;;22.76;53.72;101787.50;4965160;28;20066;-39
2023/09/28 08:46:12;;;;;;;15.82;3.42;;;;;;;22.77;53.47;101779.22;4963344;28;20053;-40
2023/09/28 08:48:47;;;;;;;15.95;4.18;;;;;;;22.80;53.61;101783.47;4967331;28;20336;-40
2023/09/28 08:51:15;;;;;;;13.38;3.53;;;;;;;22.82;53.74;101793.09;4962378;28;20042;-40
2023/09/28 08:53:43;;;;;;;16.73;4.70;;;;;;;22.84;53.79;101787.53;4964128;28;20514;-41
2023/09/28 08:56:10;;;;;;;13.88;3.83;;;;;;;22.84;53.39;101774.88;4969458;28;20447;-40
2023/09/28 08:58:37;;;;;;;15.88;4.55;;;;;;;22.86;53.80;101775.53;4970517;28;20438;-39
2023/09/28 09:01:06;;;;;;;19.58;4.63;;;;;;;22.88;53.87;101791.59;4966895;28;20387;-41
2023/09/28 09:03:33;;;;;;;20.25;4.72;;;;;;;22.90;53.98;101805.78;4965529;28;20057;-41
2023/09/28 09:06:04;;;;;;;16.50;4.95;;;;;;;22.92;53.67;101800.28;4962693;28;20515;-41
2023/09/28 09:08:35;;;;;;;18.48;4.57;;;;;;;22.94;53.93;101795.53;4965205;28;20248;-41
2023/09/28 09:11:02;;;;;;;20.55;4.65;;;;;;;22.96;53.68;101799.78;4963484;28;20354;-41
2023/09/28 09:13:29;;;;;;;22.60;5.22;;;;;;;22.97;54.39;101806.88;4963312;28;20050;-41
2023/09/28 09:15:56;;;;;;;18.58;5.32;;;;;;;22.98;54.08;101797.75;4962701;28;20046;-41
2023/09/28 09:18:26;;;;;;;14.60;4.18;;;;;;;23.00;53.95;101798.44;4966418;28;20051;-41
2023/09/28 09:20:58;;;;;;;14.45;4.47;;;;;;;23.00;54.53;101793.03;4959622;28;20042;-41
2023/09/28 09:23:25;;;;;;;18.15;4.80;;;;;;;23.02;54.10;101782.88;4963869;28;20470;-41
2023/09/28 09:25:53;;;;;;;18.85;5.57;;;;;;;23.03;54.15;101781.03;4963039;28;20051;-41
2023/09/28 09:28:32;;;;;;;22.48;4.70;;;;;;;23.05;54.27;101792.53;4991801;28;20632;-41
2023/09/28 09:31:01;;;;;;;17.40;4.18;;;;;;;23.06;54.37;101789.66;4965768;28;20039;-39
2023/09/28 09:33:28;;;;;;;21.75;4.78;;;;;;;23.07;54.13;101788.66;4966676;28;20142;-41
2023/09/28 09:35:55;;;;;;;16.15;4.10;;;;;;;23.08;54.35;101789.53;4963434;28;20062;-42
2023/09/28 09:38:31;;;;;;;17.77;5.22;;;;;;;23.08;54.38;101784.94;4961399;28;20043;-40
2023/09/28 09:41:00;;;;;;;18.38;4.70;;;;;;;23.11;54.79;101781.91;4965866;28;20042;-40
2023/09/28 09:43:39;;;;;;;17.85;4.75;;;;;;;23.11;54.41;101791.88;4963845;28;20042;-41
2023/09/28 09:46:08;;;;;;;21.70;4.13;;;;;;;23.12;54.23;101793.59;4961079;28;20051;-42
2023/09/28 09:48:40;;;;;;;19.17;5.32;;;;;;;23.12;54.46;101793.59;4961205;28;20051;-42
2023/09/28 09:51:13;;;;;;;16.95;4.30;;;;;;;23.12;53.96;101791.72;4965397;28;20142;-41
2023/09/28 09:53:44;;;;;;;21.90;5.27;;;;;;;23.13;54.24;101790.72;4964079;28;20081;-42
2023/09/28 09:56:12;;;;;;;15.85;4.35;;;;;;;23.15;54.01;101795.94;4961017;28;20055;-43
2023/09/28 09:58:47;;;;;;;18.58;4.63;;;;;;;23.15;54.35;101793.22;4963207;28;20130;-42
2023/09/28 10:01:16;;;;;;;13.77;4.07;;;;;;;23.15;54.18;101783.25;4963058;28;20055;-42
2023/09/28 10:03:50;;;;;;;16.23;3.95;;;;;;;23.16;53.91;101778.72;4961411;28;20118;-42
2023/09/28 10:06:21;;;;;;;21.70;5.00;;;;;;;23.17;53.93;101782.28;4965978;28;20058;-42
2023/09/28 10:08:49;;;;;;;19.30;4.53;;;;;;;23.19;54.20;101782.94;4959095;28;20130;-40
2023/09/28 10:11:18;;;;;;;22.42;4.18;;;;;;;23.19;53.87;101788.34;4962842;28;20160;-39
2023/09/28 10:13:49;;;;;;;14.18;4.15;;;;;;;23.19;54.08;101788.34;4959706;28;20054;-42
2023/09/28 10:16:18;;;;;;;14.43;3.30;;;;;;;23.19;53.94;101793.75;4960204;28;20418;-42
2023/09/28 10:18:47;;;;;;;19.30;4.20;;;;;;;23.17;53.61;101788.53;4961229;28;20367;-42
2023/09/28 10:21:15;;;;;;;15.73;3.90;;;;;;;23.18;53.52;101798.31;4960902;28;20125;-42
2023/09/28 10:23:42;;;;;;;13.52;3.47;;;;;;;23.17;53.63;101799.34;4959476;28;20291;-42
2023/09/28 10:26:16;;;;;;;10.52;2.95;;;;;;;23.19;53.94;101804.56;4964618;28;20051;-40
2023/09/28 10:29:05;;;;;;;17.90;4.00;;;;;;;23.17;53.60;101814.72;4962579;28;20055;-40
2023/09/28 10:31:42;;;;;;;18.05;3.65;;;;;;;23.20;53.16;101817.13;4961066;28;20050;-40
2023/09/28 10:34:19;;;;;;;16.05;3.95;;;;;;;23.19;53.59;101818.09;4959789;28;20129;-40
2023/09/28 10:37:10;;;;;;;15.35;3.95;;;;;;;23.17;53.47;101828.25;4966215;28;20483;-40
2023/09/28 10:39:38;;;;;;;19.25;4.05;;;;;;;23.18;53.53;101822.66;4964089;28;20390;-40
2023/09/28 10:42:11;;;;;;;21.52;3.95;;;;;;;23.17;53.70;101820.97;4966911;28;20075;-41
2023/09/28 10:44:56;;;;;;;13.73;3.72;;;;;;;23.17;53.62;101825.53;4959791;28;20059;-41
2023/09/28 10:47:24;;;;;;;19.25;3.70;;;;;;;23.19;53.74;101823.50;4963160;28;20420;-41
2023/09/28 10:50:01;;;;;;;14.57;3.55;;;;;;;23.17;53.00;101828.25;4963927;28;20074;-40
2023/09/28 10:52:28;;;;;;;15.07;3.42;;;;;;;23.18;53.58;101825.38;4966842;28;20313;-40
2023/09/28 10:54:56;;;;;;;18.85;4.45;;;;;;;23.18;53.26;101819.97;4968828;28;20420;-40
2023/09/28 10:57:32;;;;;;;18.98;3.63;;;;;;;23.18;53.35;101828.06;4963933;28;20055;-41
2023/09/28 11:00:04;;;;;;;10.98;3.58;;;;;;;23.19;53.24;101820.81;4968776;28;20051;-41
2023/09/28 11:02:36;;;;;;;14.20;3.50;;;;;;;23.19;53.45;101824.34;4969580;28;20129;-41
2023/09/28 11:05:07;;;;;;;17.67;3.83;;;;;;;23.20;53.04;101827.94;4963831;28;20062;-40
2023/09/28 11:07:35;;;;;;;18.65;3.90;;;;;;;23.21;53.47;101825.06;4966375;28;20043;-41
2023/09/28 11:10:02;;;;;;;16.00;3.50;;;;;;;23.21;52.87;101825.06;4968381;28;20434;-41
2023/09/28 11:12:29;;;;;;;17.08;3.97;;;;;;;23.21;53.20;101824.22;4969613;28;20044;-41
2023/09/28 11:14:58;;;;;;;15.27;3.67;;;;;;;23.21;52.91;101837.72;4964875;28;20511;-40
2023/09/28 11:17:26;;;;;;;16.55;3.97;;;;;;;23.21;52.89;101843.97;4962019;28;20054;-41
2023/09/28 11:19:54;;;;;;;17.75;4.15;;;;;;;23.22;52.87;101847.53;4963458;28;20062;-40
2023/09/28 11:22:21;;;;;;;13.52;3.90;;;;;;;23.22;52.78;101855.66;4965309;28;20046;-41
2023/09/28 11:24:47;;;;;;;15.32;4.15;;;;;;;23.22;52.99;101855.66;4962338;28;20130;-41
2023/09/28 11:27:14;;;;;;;17.40;3.38;;;;;;;23.21;53.35;101852.09;4967716;28;20121;-42